createdAt,value
2022-09-20T00:00:42.536Z,2.17
2022-09-20T00:03:09.415Z,4.47
2022-09-20T00:05:36.592Z,2.30
2022-09-20T00:08:04.402Z,3.73
2022-09-20T00:10:31.680Z,3.67
2022-09-20T00:12:57.948Z,2.17
2022-09-20T00:15:24.178Z,5.10
2022-09-20T00:17:50.519Z,2.40
2022-09-20T00:20:16.754Z,2.33
2022-09-20T00:22:43.022Z,3.77
2022-09-20T00:25:09.442Z,4.23
2022-09-20T00:27:35.650Z,5.10
2022-09-20T00:30:01.932Z,3.40
2022-09-20T00:32:28.163Z,1.73
2022-09-20T00:35:10.908Z,2.83
2022-09-20T00:37:39.183Z,1.93
2022-09-20T00:40:06.726Z,2.13
2022-09-20T00:42:33.009Z,4.40
2022-09-20T00:45:02.500Z,4.17
2022-09-20T00:47:34.788Z,3.13
2022-09-20T00:50:04.082Z,3.37
2022-09-20T00:52:31.032Z,2.13
2022-09-20T00:54:58.167Z,1.80
2022-09-20T00:57:24.418Z,4.27
2022-09-20T00:59:52.047Z,3.87
2022-09-20T01:02:21.264Z,4.00
2022-09-20T01:04:48.459Z,2.63
2022-09-20T01:07:16.728Z,1.20
2022-09-20T01:09:43.116Z,1.27
2022-09-20T01:12:12.664Z,3.83
2022-09-20T01:14:40.246Z,2.90
2022-09-20T01:17:07.127Z,2.83
2022-09-20T01:19:33.321Z,2.60
2022-09-20T01:22:01.836Z,1.90
2022-09-20T01:24:42.876Z,2.33
2022-09-20T01:27:37.690Z,3.20
2022-09-20T01:30:08.903Z,1.50
2022-09-20T01:32:45.158Z,3.70
2022-09-20T01:35:12.042Z,3.10
2022-09-20T01:37:59.351Z,3.50
2022-09-20T01:40:26.855Z,1.87
2022-09-20T01:43:02.819Z,3.17
2022-09-20T01:45:30.819Z,3.73
2022-09-20T01:48:08.648Z,2.57
2022-09-20T01:50:40.013Z,2.33
2022-09-20T01:53:29.266Z,3.20
2022-09-20T01:56:08.585Z,2.83
2022-09-20T01:59:07.154Z,2.23
2022-09-20T02:01:52.277Z,2.07
2022-09-20T02:04:40.436Z,2.60
2022-09-20T02:07:25.068Z,3.77
2022-09-20T02:09:58.432Z,1.57
2022-09-20T02:12:31.597Z,1.77
2022-09-20T02:15:29.764Z,2.77
2022-09-20T02:18:03.495Z,2.47
2022-09-20T02:20:42.071Z,5.40
2022-09-20T02:23:22.358Z,2.10
2022-09-20T02:26:03.149Z,5.47
2022-09-20T02:28:51.492Z,3.40
2022-09-20T02:31:36.372Z,3.97
2022-09-20T02:34:18.214Z,1.97
2022-09-20T02:36:44.434Z,5.77
2022-09-20T02:39:10.634Z,3.67
2022-09-20T02:41:36.856Z,2.57
2022-09-20T02:44:18.251Z,1.60
2022-09-20T02:46:50.564Z,2.30
2022-09-20T02:49:36.573Z,1.87
2022-09-20T02:52:05.842Z,4.10
2022-09-20T02:54:53.924Z,2.37
2022-09-20T02:57:26.759Z,3.37
2022-09-20T02:59:56.883Z,1.80
2022-09-20T03:02:44.103Z,3.27
2022-09-20T03:05:46.114Z,4.63
2022-09-20T03:08:24.259Z,4.60
2022-09-20T03:10:54.584Z,3.00
2022-09-20T03:13:39.512Z,2.90
2022-09-20T03:16:24.595Z,1.80
2022-09-20T03:18:57.570Z,1.70
2022-09-20T03:21:43.155Z,2.73
2022-09-20T03:24:19.875Z,2.60
2022-09-20T03:27:04.249Z,3.27
2022-09-20T03:29:52.344Z,4.53
2022-09-20T03:32:33.938Z,2.90
2022-09-20T03:35:00.184Z,2.67
2022-09-20T03:37:34.172Z,2.70
2022-09-20T03:40:06.322Z,1.97
2022-09-20T03:42:33.040Z,2.53
2022-09-20T03:45:17.937Z,1.73
2022-09-20T03:48:02.992Z,4.17
2022-09-20T03:50:44.986Z,1.60
2022-09-20T03:53:30.089Z,1.93
2022-09-20T03:56:11.521Z,3.53
2022-09-20T03:58:56.615Z,2.77
2022-09-20T04:01:34.596Z,2.03
2022-09-20T04:04:11.235Z,2.60
2022-09-20T04:06:37.465Z,5.07
2022-09-20T04:09:22.339Z,1.73
2022-09-20T04:12:07.960Z,1.73
2022-09-20T04:14:53.256Z,1.50
2022-09-20T04:17:41.554Z,4.37
2022-09-20T04:20:16.946Z,1.60
2022-09-20T04:22:44.601Z,3.43
2022-09-20T04:25:43.737Z,2.63
2022-09-20T04:28:21.790Z,5.00
2022-09-20T04:30:49.630Z,4.43
2022-09-20T04:33:20.663Z,4.17
2022-09-20T04:36:24.818Z,2.67
2022-09-20T04:39:13.366Z,1.73
2022-09-20T04:42:09.484Z,1.57
2022-09-20T04:45:05.928Z,3.70
2022-09-20T04:47:44.221Z,3.07
2022-09-20T04:50:19.702Z,5.57
2022-09-20T04:52:48.924Z,3.00
2022-09-20T04:55:52.458Z,4.20
2022-09-20T04:58:19.195Z,3.87
2022-09-20T05:01:04.061Z,2.00
2022-09-20T05:03:40.198Z,5.77
2022-09-20T05:06:26.702Z,3.90
2022-09-20T05:09:04.565Z,3.00
2022-09-20T05:11:52.277Z,2.77
2022-09-20T05:14:37.137Z,3.00
2022-09-20T05:17:25.455Z,3.53
2022-09-20T05:20:10.024Z,2.73
2022-09-20T05:22:57.604Z,4.40
2022-09-20T05:25:34.888Z,4.80
2022-09-20T05:28:10.131Z,1.70
2022-09-20T05:30:58.134Z,3.53
2022-09-20T05:33:44.892Z,3.07
2022-09-20T05:36:19.872Z,4.60
2022-09-20T05:38:48.600Z,3.87
2022-09-20T05:41:21.038Z,3.17
2022-09-20T05:43:53.218Z,2.77
2022-09-20T05:46:19.410Z,2.37
2022-09-20T05:48:54.293Z,2.60
2022-09-20T05:51:27.525Z,3.00
2022-09-20T05:54:14.255Z,7.70
2022-09-20T05:56:54.895Z,3.87
2022-09-20T05:59:29.989Z,4.80
2022-09-20T06:02:09.064Z,5.57
2022-09-20T06:04:50.457Z,3.10
2022-09-20T06:07:28.791Z,2.47
2022-09-20T06:10:07.686Z,1.93
2022-09-20T06:12:54.569Z,2.70
2022-09-20T06:15:36.336Z,3.73
2022-09-20T06:18:11.455Z,3.20
2022-09-20T06:20:43.500Z,2.80
2022-09-20T06:23:10.126Z,3.33
2022-09-20T06:25:42.891Z,3.90
2022-09-20T06:28:12.231Z,1.73
2022-09-20T06:30:48.995Z,2.53
2022-09-20T06:33:16.772Z,1.47
2022-09-20T06:36:21.895Z,1.83
2022-09-20T06:39:25.727Z,3.30
2022-09-20T06:41:52.281Z,3.10
2022-09-20T06:44:18.488Z,3.43
2022-09-20T06:46:44.699Z,3.87
2022-09-20T06:49:10.916Z,3.30
2022-09-20T06:51:38.087Z,5.20
2022-09-20T06:54:05.382Z,5.50
2022-09-20T06:56:36.733Z,3.60
2022-09-20T06:59:03.756Z,2.83
2022-09-20T07:01:30.861Z,4.77
2022-09-20T07:03:57.692Z,4.37
2022-09-20T07:06:24.019Z,3.67
2022-09-20T07:08:50.253Z,3.60
2022-09-20T07:11:17.135Z,4.00
2022-09-20T07:13:43.904Z,3.80
2022-09-20T07:16:12.141Z,2.77
2022-09-20T07:18:38.654Z,3.70
2022-09-20T07:21:06.252Z,2.43
2022-09-20T07:23:32.471Z,3.13
2022-09-20T07:26:00.610Z,3.03
2022-09-20T07:28:27.371Z,3.37
2022-09-20T07:30:54.138Z,3.20
2022-09-20T07:33:21.610Z,4.33
2022-09-20T07:35:48.691Z,3.33
2022-09-20T07:38:15.475Z,2.93
2022-09-20T07:40:41.730Z,4.83
2022-09-20T07:43:08.220Z,3.10
2022-09-20T07:45:38.265Z,2.77
2022-09-20T07:48:06.274Z,4.07
2022-09-20T07:50:35.883Z,3.60
2022-09-20T07:53:02.780Z,2.93
2022-09-20T07:55:28.987Z,4.90
2022-09-20T07:57:55.738Z,5.70
2022-09-20T08:00:22.022Z,4.03
2022-09-20T08:02:48.235Z,2.77
2022-09-20T08:05:14.482Z,3.33
2022-09-20T08:07:40.738Z,2.47
2022-09-20T08:10:07.671Z,3.23
2022-09-20T08:15:20.635Z,4.90
2022-09-20T08:17:47.323Z,4.27
2022-09-20T08:20:14.014Z,3.90
2022-09-20T08:22:42.920Z,3.70
2022-09-20T08:25:09.269Z,5.07
2022-09-20T08:27:35.478Z,4.63
2022-09-20T08:30:01.754Z,4.57
2022-09-20T08:32:27.970Z,5.07
2022-09-20T08:34:54.187Z,5.20
2022-09-20T08:37:20.639Z,3.10
2022-09-20T08:40:02.206Z,5.73
2022-09-20T08:42:33.591Z,4.33
2022-09-20T08:45:05.212Z,3.70
2022-09-20T08:47:33.134Z,4.83
2022-09-20T08:50:00.852Z,3.40
2022-09-20T08:52:36.184Z,4.83
2022-09-20T08:55:07.708Z,3.97
2022-09-20T08:57:34.929Z,2.50
2022-09-20T09:00:02.023Z,4.40
2022-09-20T09:02:30.754Z,3.23
2022-09-20T09:04:57.066Z,4.23
2022-09-20T09:07:23.633Z,3.50
2022-09-20T09:09:51.826Z,5.47
2022-09-20T09:12:23.131Z,3.33
2022-09-20T09:14:51.075Z,3.60
2022-09-20T09:17:27.570Z,5.37
2022-09-20T09:19:55.995Z,3.60
2022-09-20T09:22:42.010Z,4.27
2022-09-20T09:25:17.211Z,2.97
2022-09-20T09:27:52.711Z,4.83
2022-09-20T09:30:20.499Z,3.10
2022-09-20T09:32:46.703Z,2.90
2022-09-20T09:35:28.697Z,6.07
2022-09-20T09:37:57.053Z,4.83
2022-09-20T09:40:23.538Z,4.20
2022-09-20T09:42:51.471Z,3.13
2022-09-20T09:45:28.965Z,4.40
2022-09-20T09:47:56.439Z,4.20
2022-09-20T09:50:24.898Z,3.40
2022-09-20T09:52:59.166Z,4.40
2022-09-20T09:55:39.586Z,2.63
2022-09-20T09:58:24.286Z,4.57
2022-09-20T10:00:52.605Z,3.80
2022-09-20T10:03:27.154Z,4.83
2022-09-20T10:06:04.521Z,5.83
2022-09-20T10:08:30.800Z,4.07
2022-09-20T10:10:59.433Z,2.40
2022-09-20T10:13:40.449Z,4.17
2022-09-20T10:16:07.175Z,4.40
2022-09-20T10:18:37.215Z,5.00
2022-09-20T10:21:07.818Z,4.50
2022-09-20T10:24:08.848Z,5.57
2022-09-20T10:26:40.899Z,3.57
2022-09-20T10:29:16.328Z,6.03
2022-09-20T10:31:47.476Z,3.13
2022-09-20T10:34:26.087Z,3.47
2022-09-20T10:36:59.250Z,4.97
2022-09-20T10:39:29.112Z,3.83
2022-09-20T10:42:21.781Z,5.70
2022-09-20T10:45:20.680Z,5.60
2022-09-20T10:48:03.416Z,5.10
2022-09-20T10:50:35.206Z,4.30
2022-09-20T10:53:30.905Z,5.10
2022-09-20T10:56:15.684Z,2.83
2022-09-20T10:58:59.822Z,3.63
2022-09-20T11:01:52.439Z,2.70
2022-09-20T11:04:34.956Z,5.20
2022-09-20T11:07:16.986Z,7.20
2022-09-20T11:09:47.328Z,5.47
2022-09-20T11:12:18.852Z,3.63
2022-09-20T11:14:55.928Z,4.20
2022-09-20T11:17:51.327Z,6.13
2022-09-20T11:20:32.498Z,4.53
2022-09-20T11:23:06.215Z,4.60
2022-09-20T11:25:44.286Z,6.47
2022-09-20T11:28:22.596Z,6.93
2022-09-20T11:31:09.092Z,3.13
2022-09-20T11:33:41.448Z,4.27
2022-09-20T11:36:10.855Z,5.90
2022-09-20T11:38:53.017Z,3.40
2022-09-20T11:41:29.858Z,3.43
2022-09-20T11:44:00.385Z,1.70
2022-09-20T11:46:31.138Z,1.37
2022-09-20T11:49:07.775Z,2.93
2022-09-20T11:51:48.529Z,3.00
2022-09-20T11:54:23.855Z,3.67
2022-09-20T11:56:56.483Z,4.93
2022-09-20T11:59:28.177Z,3.43
2022-09-20T12:01:55.667Z,4.27
2022-09-20T12:04:34.681Z,6.60
2022-09-20T12:07:17.776Z,5.23
2022-09-20T12:09:46.437Z,4.93
2022-09-20T12:12:23.655Z,4.53
2022-09-20T12:14:56.730Z,5.53
2022-09-20T12:17:41.800Z,6.43
2022-09-20T12:20:26.908Z,5.63
2022-09-20T12:22:53.158Z,4.47
2022-09-20T12:25:36.615Z,4.70
2022-09-20T12:28:02.988Z,6.10
2022-09-20T12:30:33.849Z,5.13
2022-09-20T12:33:01.366Z,5.37
2022-09-20T12:35:36.933Z,4.40
2022-09-20T12:38:21.501Z,6.10
2022-09-20T12:41:01.967Z,6.83
2022-09-20T12:43:30.027Z,5.50
2022-09-20T12:46:01.279Z,6.50
2022-09-20T12:48:34.608Z,5.20
2022-09-20T12:51:24.606Z,2.83
2022-09-20T12:54:07.770Z,3.80
2022-09-20T12:56:36.256Z,3.23
2022-09-20T12:59:05.566Z,2.50
2022-09-20T13:01:34.105Z,3.17
2022-09-20T13:04:20.732Z,3.00
2022-09-20T13:06:47.741Z,2.50
2022-09-20T13:09:15.176Z,1.77
2022-09-20T13:11:45.685Z,2.10
2022-09-20T13:14:14.534Z,0.63
2022-09-20T13:16:58.987Z,1.07
2022-09-20T13:19:41.683Z,1.20
2022-09-20T13:22:27.083Z,1.60
2022-09-20T13:24:56.320Z,1.53
2022-09-20T13:27:24.537Z,1.13
2022-09-20T13:29:51.554Z,1.23
2022-09-20T13:32:18.811Z,2.13
2022-09-20T13:34:45.756Z,2.07
2022-09-20T13:37:23.482Z,1.43
2022-09-20T13:39:53.385Z,3.43
2022-09-20T13:42:19.848Z,1.63
2022-09-20T13:44:47.177Z,1.47
2022-09-20T13:47:23.913Z,1.73
2022-09-20T13:49:50.777Z,1.80
2022-09-20T13:52:22.426Z,1.93
2022-09-20T13:54:48.674Z,1.23
2022-09-20T13:57:23.040Z,1.20
2022-09-20T13:59:50.909Z,2.00
2022-09-20T14:02:31.638Z,1.87
2022-09-20T14:04:59.992Z,2.13
2022-09-20T14:07:28.327Z,1.63
2022-09-20T14:09:56.057Z,0.93
2022-09-20T14:12:26.492Z,1.07
2022-09-20T14:14:53.149Z,0.80
2022-09-20T14:17:21.674Z,1.30
2022-09-20T14:19:49.774Z,0.77
2022-09-20T14:22:19.018Z,1.97
2022-09-20T14:24:57.530Z,2.07
2022-09-20T14:27:23.775Z,0.80
2022-09-20T14:29:50.982Z,0.73
2022-09-20T14:32:17.175Z,1.17
2022-09-20T14:34:55.900Z,1.40
2022-09-20T14:37:24.159Z,1.63
2022-09-20T14:39:53.701Z,2.93
2022-09-20T14:42:28.600Z,0.73
2022-09-20T14:44:55.090Z,1.10
2022-09-20T14:47:28.571Z,1.30
2022-09-20T14:49:55.583Z,0.90
2022-09-20T14:52:23.473Z,1.90
2022-09-20T14:55:00.542Z,4.90
2022-09-20T14:57:27.088Z,2.30
2022-09-20T15:00:04.560Z,1.87
2022-09-20T15:02:30.986Z,2.10
2022-09-20T15:05:00.188Z,1.77
2022-09-20T15:07:26.621Z,1.40
2022-09-20T15:09:52.866Z,2.07
2022-09-20T15:12:19.799Z,0.83
2022-09-20T15:14:46.401Z,1.13
2022-09-20T15:17:14.755Z,0.87
2022-09-20T15:19:40.994Z,0.90
2022-09-20T15:22:09.116Z,2.47
2022-09-20T15:24:35.374Z,0.80
2022-09-20T15:27:01.631Z,0.90
2022-09-20T15:29:27.949Z,0.70
2022-09-20T15:31:54.277Z,3.70
2022-09-20T15:34:20.544Z,1.70
2022-09-20T15:36:47.005Z,1.77
2022-09-20T15:39:13.319Z,2.30
2022-09-20T15:41:40.061Z,1.23
2022-09-20T15:44:07.054Z,0.90
2022-09-20T15:46:33.923Z,0.90
2022-09-20T15:49:00.914Z,3.70
2022-09-20T15:51:27.799Z,2.83
2022-09-20T15:54:01.648Z,5.03
2022-09-20T15:56:29.446Z,1.57
2022-09-20T15:58:59.880Z,0.90
2022-09-20T16:01:40.383Z,2.03
2022-09-20T16:04:08.042Z,2.10
2022-09-20T16:06:34.378Z,1.30
2022-09-20T16:09:00.706Z,2.77
2022-09-20T16:11:27.986Z,1.47
2022-09-20T16:13:55.176Z,2.13
2022-09-20T16:16:21.883Z,2.17
2022-09-20T16:19:06.815Z,2.13
2022-09-20T16:21:33.272Z,3.17
2022-09-20T16:24:00.311Z,2.97
2022-09-20T16:26:27.490Z,1.70
2022-09-20T16:28:55.615Z,2.80
2022-09-20T16:31:29.101Z,3.63
2022-09-20T16:33:55.445Z,3.10
2022-09-20T16:36:27.275Z,4.47
2022-09-20T16:38:55.269Z,4.53
2022-09-20T16:41:22.976Z,3.33
2022-09-20T16:43:52.175Z,2.27
2022-09-20T16:46:22.054Z,3.57
2022-09-20T16:48:49.804Z,5.57
2022-09-20T16:51:16.057Z,3.93
2022-09-20T16:53:43.475Z,7.37
2022-09-20T16:56:19.065Z,4.57
2022-09-20T16:58:45.766Z,4.37
2022-09-20T17:01:12.148Z,4.27
2022-09-20T17:03:40.804Z,4.03
2022-09-20T17:06:08.166Z,4.27
2022-09-20T17:08:38.671Z,4.70
2022-09-20T17:11:05.923Z,5.53
2022-09-20T17:13:35.127Z,5.13
2022-09-20T17:16:05.865Z,4.60
2022-09-20T17:18:33.423Z,3.20
2022-09-20T17:21:03.379Z,4.50
2022-09-20T17:23:31.032Z,3.53
2022-09-20T17:26:06.284Z,2.00
2022-09-20T17:28:36.746Z,2.43
2022-09-20T17:31:03.548Z,6.43
2022-09-20T17:33:31.036Z,4.53
2022-09-20T17:36:00.159Z,3.30
2022-09-20T17:38:27.188Z,3.30
2022-09-20T17:41:00.598Z,4.53
2022-09-20T17:43:28.869Z,4.93
2022-09-20T17:45:56.609Z,4.80
2022-09-20T17:48:25.856Z,4.77
2022-09-20T17:50:57.734Z,4.70
2022-09-20T17:53:24.560Z,3.77
2022-09-20T17:55:57.477Z,3.90
2022-09-20T17:58:24.166Z,4.63
2022-09-20T18:00:50.545Z,6.23
2022-09-20T18:03:17.462Z,4.23
2022-09-20T18:05:43.780Z,3.83
2022-09-20T18:08:10.046Z,5.17
2022-09-20T18:10:36.281Z,4.00
2022-09-20T18:13:02.521Z,5.10
2022-09-20T18:15:28.782Z,3.57
2022-09-20T18:17:55.227Z,2.80
2022-09-20T18:20:21.661Z,7.47
2022-09-20T18:22:48.238Z,2.67
2022-09-20T18:25:14.629Z,7.57
2022-09-20T18:27:41.067Z,3.20
2022-09-20T18:30:07.738Z,3.10
2022-09-20T18:32:33.972Z,4.97
2022-09-20T18:35:00.299Z,4.10
2022-09-20T18:37:26.979Z,4.53
2022-09-20T18:39:53.228Z,4.30
2022-09-20T18:42:19.500Z,6.07
2022-09-20T18:44:48.924Z,3.87
2022-09-20T18:47:15.159Z,4.17
2022-09-20T18:49:42.865Z,4.10
2022-09-20T18:52:10.753Z,3.73
2022-09-20T18:54:37.300Z,3.77
2022-09-20T18:57:03.687Z,4.37
2022-09-20T18:59:30.023Z,5.03
2022-09-20T19:02:09.706Z,4.13
2022-09-20T19:04:54.411Z,5.03
2022-09-20T19:07:36.082Z,6.53
2022-09-20T19:10:05.362Z,8.63
2022-09-20T19:12:40.492Z,6.77
2022-09-20T19:15:42.111Z,7.80
2022-09-20T19:18:27.035Z,7.20
2022-09-20T19:20:53.440Z,6.50
2022-09-20T19:23:40.980Z,5.33
2022-09-20T19:26:10.518Z,9.00
2022-09-20T19:28:36.904Z,4.50
2022-09-20T19:31:03.448Z,4.87
2022-09-20T19:33:29.748Z,6.00
2022-09-20T19:35:56.180Z,5.27
2022-09-20T19:38:40.286Z,8.97
2022-09-20T19:41:08.731Z,8.87
2022-09-20T19:43:45.192Z,10.87
2022-09-20T19:46:31.838Z,7.63
2022-09-20T19:49:07.360Z,6.27
2022-09-20T19:51:36.491Z,6.10
2022-09-20T19:54:03.016Z,7.20
2022-09-20T19:56:32.020Z,7.57
2022-09-20T19:58:58.452Z,6.93
2022-09-20T20:01:25.370Z,10.10
2022-09-20T20:03:52.326Z,7.17
2022-09-20T20:06:29.869Z,6.50
2022-09-20T20:09:02.246Z,8.53
2022-09-20T20:11:38.163Z,6.53
2022-09-20T20:14:12.736Z,5.77
2022-09-20T20:16:51.014Z,6.43
2022-09-20T20:19:17.211Z,6.87
2022-09-20T20:21:46.314Z,5.30
2022-09-20T20:24:25.886Z,10.43
2022-09-20T20:26:52.124Z,5.67
2022-09-20T20:29:18.428Z,5.50
2022-09-20T20:31:44.696Z,5.70
2022-09-20T20:34:11.987Z,5.10
2022-09-20T20:36:38.961Z,4.83
2022-09-20T20:39:06.221Z,7.63
2022-09-20T20:41:32.557Z,4.63
2022-09-20T20:43:58.823Z,4.20
2022-09-20T20:46:25.901Z,5.90
2022-09-20T20:48:52.263Z,5.40
2022-09-20T20:51:19.929Z,6.70
2022-09-20T20:53:47.725Z,5.23
2022-09-20T20:56:15.795Z,6.80
2022-09-20T20:58:43.035Z,8.87
2022-09-20T21:01:27.293Z,9.93
2022-09-20T21:03:54.353Z,7.20
2022-09-20T21:06:22.280Z,7.93
2022-09-20T21:08:49.827Z,6.80
2022-09-20T21:11:18.660Z,8.77
2022-09-20T21:13:45.061Z,7.43
2022-09-20T21:16:15.288Z,8.40
2022-09-20T21:18:42.598Z,7.07
2022-09-20T21:21:19.517Z,8.70
2022-09-20T21:23:47.189Z,11.30
2022-09-20T21:26:15.314Z,11.53
2022-09-20T21:28:42.856Z,12.90
2022-09-20T21:31:10.049Z,15.17
2022-09-20T21:33:37.636Z,11.20
2022-09-20T21:36:04.628Z,10.80
2022-09-20T21:38:33.757Z,8.70
2022-09-20T21:41:04.195Z,11.50
2022-09-20T21:43:30.560Z,8.60
2022-09-20T21:45:58.319Z,7.03
2022-09-20T21:48:25.660Z,7.33
2022-09-20T21:50:52.315Z,5.57
2022-09-20T21:53:18.936Z,6.13
2022-09-20T21:55:45.180Z,6.87
2022-09-20T21:58:11.653Z,7.30
2022-09-20T22:00:38.844Z,5.53
2022-09-20T22:03:05.065Z,4.60
2022-09-20T22:05:31.305Z,5.53
2022-09-20T22:07:57.546Z,4.53
2022-09-20T22:10:24.183Z,6.07
2022-09-20T22:12:50.433Z,3.73
2022-09-20T22:15:16.686Z,4.90
2022-09-20T22:17:43.599Z,4.03
2022-09-20T22:20:10.188Z,3.30
2022-09-20T22:22:36.431Z,3.53
2022-09-20T22:25:02.663Z,3.60
2022-09-20T22:27:29.051Z,2.90
2022-09-20T22:29:55.480Z,3.77
2022-09-20T22:32:21.704Z,3.07
2022-09-20T22:34:47.928Z,3.33
2022-09-20T22:37:14.172Z,3.33
2022-09-20T22:39:41.546Z,7.90
2022-09-20T22:42:07.747Z,2.77
2022-09-20T22:44:34.030Z,3.57
2022-09-20T22:47:00.248Z,4.90
2022-09-20T22:49:26.472Z,2.40
2022-09-20T22:51:52.707Z,3.10
2022-09-20T22:54:18.945Z,2.73
2022-09-20T22:56:45.214Z,3.33
2022-09-20T22:59:14.790Z,6.93
2022-09-20T23:01:42.915Z,2.20
2022-09-20T23:04:10.726Z,2.73
2022-09-20T23:06:41.294Z,3.37
2022-09-20T23:09:08.748Z,3.20
2022-09-20T23:11:35.539Z,4.13
2022-09-20T23:14:04.793Z,3.43
2022-09-20T23:16:32.135Z,4.00
2022-09-20T23:19:00.191Z,4.07
2022-09-20T23:21:27.585Z,4.57
2022-09-20T23:23:54.894Z,3.30
2022-09-20T23:26:21.211Z,2.77
2022-09-20T23:28:57.752Z,3.53
2022-09-20T23:31:24.487Z,2.70
2022-09-20T23:33:55.229Z,3.13
2022-09-20T23:36:21.885Z,3.20
2022-09-20T23:38:48.414Z,4.90
2022-09-20T23:41:15.761Z,2.73
2022-09-20T23:43:42.546Z,2.37
2022-09-20T23:46:09.894Z,6.20
2022-09-20T23:48:36.544Z,2.23
2022-09-20T23:51:03.688Z,3.07
2022-09-20T23:53:29.933Z,1.97
2022-09-20T23:55:56.168Z,2.93
2022-09-20T23:58:22.556Z,3.90
